PAL740 RCTP-VTBS
Flight info
| Callsign | PAL740 |
|---|---|
| Flight time | N/A |
| Altitude | 40000 |
| Route | CHALI1A CHALI T3 MKG A1 KADLO T1 KAPLI DCT MADRU DCT SULUX DCT IGLEG DCT IKELA/K0898F400 A1 PAPRA/N0484F400 A1 UBL Y20 GRASO Y13 RUKSA EASTE1C |
| Aircraft | A359/H-SDE2E3GHIJ3J4J5LM1ORWXY/LB1D1 |
Departure
| Time | N/A |
|---|---|
| Airport | Taiwan Taoyuan International Airport (RCTP) |
Arrival
| Time | 2026-05-07 15:34 |
|---|---|
| Airport | Suvarnabhumi Airport (VTBS) |
| Time | Latitude | Longitude | Altitude | Speed | Heading |
|---|---|---|---|---|---|
| 2026-05-07 14:09 | 17.43645 | 110.33181 | 37910 ft | 494 kts | 238° |
| 2026-05-07 14:10 | 17.41711 | 110.30205 | 37911 ft | 494 kts | 238° |
| 2026-05-07 14:10 | 17.37864 | 110.24238 | 37909 ft | 494 kts | 238° |
| 2026-05-07 14:11 | 17.34040 | 110.18244 | 37914 ft | 494 kts | 238° |
| 2026-05-07 14:11 | 17.30220 | 110.12262 | 37911 ft | 495 kts | 238° |
| 2026-05-07 14:12 | 17.26384 | 110.06276 | 37907 ft | 495 kts | 238° |
| 2026-05-07 14:12 | 17.22547 | 110.00299 | 37906 ft | 495 kts | 238° |
| 2026-05-07 14:13 | 17.18707 | 109.94324 | 37909 ft | 495 kts | 238° |
| 2026-05-07 14:13 | 17.14864 | 109.88348 | 37909 ft | 495 kts | 238° |
| 2026-05-07 14:14 | 17.11020 | 109.82374 | 37906 ft | 495 kts | 238° |
| 2026-05-07 14:14 | 17.07168 | 109.76394 | 37906 ft | 495 kts | 238° |
| 2026-05-07 14:15 | 17.03342 | 109.70460 | 37906 ft | 496 kts | 238° |
| 2026-05-07 14:15 | 16.99490 | 109.64490 | 37910 ft | 496 kts | 238° |
| 2026-05-07 14:16 | 16.95632 | 109.58517 | 37907 ft | 496 kts | 238° |
| 2026-05-07 14:16 | 16.91772 | 109.52545 | 37904 ft | 496 kts | 238° |
| 2026-05-07 14:17 | 16.87912 | 109.46579 | 37903 ft | 496 kts | 238° |
| 2026-05-07 14:17 | 16.84051 | 109.40616 | 37899 ft | 496 kts | 238° |
| 2026-05-07 14:18 | 16.80188 | 109.34654 | 37901 ft | 496 kts | 238° |
| 2026-05-07 14:18 | 16.76331 | 109.28690 | 37900 ft | 496 kts | 238° |
| 2026-05-07 14:19 | 16.72475 | 109.22733 | 37896 ft | 495 kts | 238° |
| 2026-05-07 14:19 | 16.68614 | 109.16777 | 37900 ft | 495 kts | 238° |
| 2026-05-07 14:20 | 16.64750 | 109.10822 | 37904 ft | 495 kts | 238° |
| 2026-05-07 14:20 | 16.60910 | 109.04908 | 37902 ft | 495 kts | 238° |
| 2026-05-07 14:21 | 16.57049 | 108.98969 | 37902 ft | 495 kts | 238° |
| 2026-05-07 14:21 | 16.53162 | 108.93035 | 37897 ft | 495 kts | 238° |
| 2026-05-07 14:22 | 16.49225 | 108.87143 | 37899 ft | 495 kts | 237° |
| 2026-05-07 14:22 | 16.45288 | 108.81263 | 37895 ft | 495 kts | 237° |
| 2026-05-07 14:23 | 16.41353 | 108.75371 | 37897 ft | 495 kts | 237° |
| 2026-05-07 14:23 | 16.37420 | 108.69480 | 37897 ft | 495 kts | 237° |
| 2026-05-07 14:24 | 16.33507 | 108.63593 | 37896 ft | 494 kts | 238° |
| 2026-05-07 14:24 | 16.29709 | 108.57689 | 37896 ft | 494 kts | 238° |
| 2026-05-07 14:25 | 16.25897 | 108.51733 | 37901 ft | 494 kts | 236° |
| 2026-05-07 14:25 | 16.21949 | 108.45882 | 37900 ft | 494 kts | 234° |
| 2026-05-07 14:26 | 16.18009 | 108.40029 | 37906 ft | 494 kts | 235° |
| 2026-05-07 14:26 | 16.14144 | 108.34125 | 37907 ft | 493 kts | 236° |
| 2026-05-07 14:27 | 16.10316 | 108.28209 | 37911 ft | 493 kts | 236° |
| 2026-05-07 14:27 | 16.06523 | 108.22264 | 37906 ft | 493 kts | 239° |
| 2026-05-07 14:28 | 16.03820 | 108.15740 | 37916 ft | 492 kts | 251° |
| 2026-05-07 14:28 | 16.01841 | 108.08948 | 37911 ft | 490 kts | 253° |
| 2026-05-07 14:29 | 15.99968 | 108.02139 | 37913 ft | 489 kts | 253° |
| 2026-05-07 14:29 | 15.98101 | 107.95386 | 37917 ft | 490 kts | 253° |
| 2026-05-07 14:30 | 15.96199 | 107.88590 | 37918 ft | 490 kts | 253° |
| 2026-05-07 14:30 | 15.94311 | 107.81781 | 37922 ft | 490 kts | 254° |
| 2026-05-07 14:31 | 15.92468 | 107.74964 | 37928 ft | 490 kts | 254° |
| 2026-05-07 14:31 | 15.90620 | 107.68149 | 37932 ft | 490 kts | 254° |
| 2026-05-07 14:32 | 15.88735 | 107.61341 | 37934 ft | 490 kts | 253° |
| 2026-05-07 14:32 | 15.86777 | 107.54550 | 37943 ft | 490 kts | 253° |
| 2026-05-07 14:33 | 15.84814 | 107.47770 | 37953 ft | 490 kts | 253° |
| 2026-05-07 14:33 | 15.82888 | 107.41085 | 37958 ft | 490 kts | 253° |
| 2026-05-07 14:34 | 15.80938 | 107.34305 | 37961 ft | 490 kts | 253° |
| 2026-05-07 14:34 | 15.78981 | 107.27510 | 37959 ft | 490 kts | 253° |
| 2026-05-07 14:35 | 15.77029 | 107.20737 | 37963 ft | 490 kts | 253° |
| 2026-05-07 14:35 | 15.75188 | 107.13928 | 37961 ft | 490 kts | 257° |
| 2026-05-07 14:36 | 15.73768 | 107.07062 | 37955 ft | 489 kts | 258° |
| 2026-05-07 14:36 | 15.72384 | 107.00164 | 37945 ft | 488 kts | 258° |
| 2026-05-07 14:37 | 15.70932 | 106.93277 | 37932 ft | 488 kts | 257° |
| 2026-05-07 14:37 | 15.68696 | 106.82976 | 37919 ft | 488 kts | 257° |
| 2026-05-07 14:38 | 15.67196 | 106.76095 | 37913 ft | 488 kts | 257° |
| 2026-05-07 14:38 | 15.65697 | 106.69220 | 37904 ft | 488 kts | 257° |
| 2026-05-07 14:39 | 15.64196 | 106.62342 | 37900 ft | 488 kts | 257° |
| 2026-05-07 14:39 | 15.62703 | 106.55509 | 37896 ft | 489 kts | 257° |
| 2026-05-07 14:40 | 15.61197 | 106.48631 | 37894 ft | 489 kts | 257° |
| 2026-05-07 14:40 | 15.59688 | 106.41748 | 37894 ft | 489 kts | 257° |
| 2026-05-07 14:41 | 15.58176 | 106.34860 | 37896 ft | 489 kts | 257° |
| 2026-05-07 14:41 | 15.56661 | 106.27967 | 37898 ft | 490 kts | 257° |
| 2026-05-07 14:42 | 15.55142 | 106.21070 | 37901 ft | 490 kts | 257° |
| 2026-05-07 14:42 | 15.53632 | 106.14219 | 37897 ft | 491 kts | 257° |
| 2026-05-07 14:43 | 15.52108 | 106.07319 | 37891 ft | 491 kts | 256° |
| 2026-05-07 14:43 | 15.50581 | 106.00421 | 37887 ft | 491 kts | 256° |
| 2026-05-07 14:44 | 15.49051 | 105.93518 | 37881 ft | 491 kts | 256° |
| 2026-05-07 14:44 | 15.47517 | 105.86611 | 37876 ft | 491 kts | 256° |
| 2026-05-07 14:45 | 15.45984 | 105.79711 | 37877 ft | 492 kts | 256° |
| 2026-05-07 14:45 | 15.44446 | 105.72804 | 37871 ft | 492 kts | 256° |
| 2026-05-07 14:46 | 15.42907 | 105.65902 | 37871 ft | 492 kts | 256° |
| 2026-05-07 14:46 | 15.41361 | 105.58982 | 37870 ft | 492 kts | 257° |
| 2026-05-07 14:47 | 15.39761 | 105.52090 | 37873 ft | 492 kts | 256° |
| 2026-05-07 14:47 | 15.38129 | 105.45243 | 37870 ft | 492 kts | 256° |
| 2026-05-07 14:48 | 15.36492 | 105.38355 | 37870 ft | 492 kts | 256° |
| 2026-05-07 14:48 | 15.34855 | 105.31467 | 37874 ft | 492 kts | 256° |
| 2026-05-07 14:49 | 15.33227 | 105.24583 | 37871 ft | 493 kts | 256° |
| 2026-05-07 14:49 | 15.31591 | 105.17670 | 37866 ft | 493 kts | 256° |
| 2026-05-07 14:50 | 15.29953 | 105.10764 | 37863 ft | 494 kts | 256° |
| 2026-05-07 14:50 | 15.28309 | 105.03850 | 37858 ft | 494 kts | 257° |
| 2026-05-07 14:51 | 15.26791 | 104.96903 | 37860 ft | 494 kts | 260° |
| 2026-05-07 14:51 | 15.25583 | 104.91113 | 37855 ft | 495 kts | 259° |
| 2026-05-07 14:52 | 15.24283 | 104.82910 | 37854 ft | 493 kts | 266° |
| 2026-05-07 14:52 | 15.23755 | 104.77029 | 37859 ft | 494 kts | 266° |
| 2026-05-07 14:53 | 15.23181 | 104.69940 | 37863 ft | 494 kts | 267° |
| 2026-05-07 14:53 | 15.22612 | 104.62852 | 37856 ft | 495 kts | 267° |
| 2026-05-07 14:54 | 15.22030 | 104.55751 | 37866 ft | 495 kts | 267° |
| 2026-05-07 14:54 | 15.21440 | 104.48640 | 37863 ft | 495 kts | 267° |
| 2026-05-07 14:55 | 15.20851 | 104.41579 | 37861 ft | 495 kts | 267° |
| 2026-05-07 14:55 | 15.20256 | 104.34470 | 37858 ft | 495 kts | 267° |
| 2026-05-07 14:56 | 15.19659 | 104.27364 | 37861 ft | 495 kts | 267° |
| 2026-05-07 14:56 | 15.19062 | 104.20279 | 37866 ft | 495 kts | 267° |
| 2026-05-07 14:57 | 15.18460 | 104.13176 | 37865 ft | 494 kts | 267° |
| 2026-05-07 14:57 | 15.17857 | 104.06073 | 37867 ft | 494 kts | 267° |
| 2026-05-07 14:58 | 15.17253 | 103.98985 | 37861 ft | 494 kts | 267° |
| 2026-05-07 14:58 | 15.16648 | 103.91906 | 37861 ft | 494 kts | 267° |
| 2026-05-07 14:59 | 15.16039 | 103.84823 | 37867 ft | 494 kts | 267° |
| 2026-05-07 14:59 | 15.15081 | 103.77782 | 37863 ft | 497 kts | 257° |
| 2026-05-07 15:00 | 15.13052 | 103.70937 | 37863 ft | 497 kts | 254° |
| 2026-05-07 15:00 | 15.10864 | 103.64197 | 37868 ft | 497 kts | 253° |
| 2026-05-07 15:01 | 15.08644 | 103.57424 | 37871 ft | 497 kts | 253° |
| 2026-05-07 15:01 | 15.06436 | 103.50644 | 37865 ft | 497 kts | 253° |
| 2026-05-07 15:02 | 15.04239 | 103.43869 | 37867 ft | 497 kts | 253° |
| 2026-05-07 15:02 | 15.02043 | 103.37096 | 37865 ft | 496 kts | 253° |
| 2026-05-07 15:03 | 14.99842 | 103.30321 | 37867 ft | 496 kts | 253° |
| 2026-05-07 15:03 | 14.97643 | 103.23559 | 37864 ft | 496 kts | 253° |
| 2026-05-07 15:04 | 14.95435 | 103.16779 | 37874 ft | 497 kts | 253° |
| 2026-05-07 15:04 | 14.93230 | 103.10013 | 37872 ft | 497 kts | 253° |
| 2026-05-07 15:05 | 14.91019 | 103.03239 | 37871 ft | 497 kts | 253° |
| 2026-05-07 15:05 | 14.88819 | 102.96503 | 37871 ft | 497 kts | 253° |
| 2026-05-07 15:06 | 14.86603 | 102.89727 | 37869 ft | 497 kts | 253° |
| 2026-05-07 15:06 | 14.84470 | 102.82924 | 37868 ft | 497 kts | 255° |
| 2026-05-07 15:07 | 14.82410 | 102.76095 | 37866 ft | 498 kts | 255° |
| 2026-05-07 15:07 | 14.80341 | 102.69275 | 37865 ft | 498 kts | 254° |
| 2026-05-07 15:08 | 14.78252 | 102.62460 | 37740 ft | 496 kts | 254° |
| 2026-05-07 15:08 | 14.77205 | 102.59058 | 37475 ft | 497 kts | 254° |
| 2026-05-07 15:08 | 14.76155 | 102.55655 | 37220 ft | 499 kts | 253° |
| 2026-05-07 15:09 | 14.75097 | 102.52239 | 36967 ft | 500 kts | 253° |
| 2026-05-07 15:09 | 14.74035 | 102.48810 | 36710 ft | 501 kts | 253° |
| 2026-05-07 15:09 | 14.72976 | 102.45385 | 36469 ft | 501 kts | 253° |
| 2026-05-07 15:09 | 14.71928 | 102.41993 | 36230 ft | 502 kts | 253° |
| 2026-05-07 15:10 | 14.70867 | 102.38556 | 35989 ft | 503 kts | 253° |
| 2026-05-07 15:10 | 14.69803 | 102.35109 | 35751 ft | 504 kts | 253° |
| 2026-05-07 15:10 | 14.68738 | 102.31661 | 35511 ft | 504 kts | 253° |
| 2026-05-07 15:10 | 14.67669 | 102.28204 | 35279 ft | 505 kts | 253° |
| 2026-05-07 15:11 | 14.66599 | 102.24747 | 35045 ft | 506 kts | 253° |
| 2026-05-07 15:11 | 14.65526 | 102.21277 | 34810 ft | 507 kts | 254° |
| 2026-05-07 15:11 | 14.64450 | 102.17805 | 34436 ft | 506 kts | 254° |
| 2026-05-07 15:11 | 14.63380 | 102.14351 | 33641 ft | 507 kts | 254° |
| 2026-05-07 15:12 | 14.62299 | 102.10860 | 32699 ft | 510 kts | 253° |
| 2026-05-07 15:12 | 14.61218 | 102.07369 | 31781 ft | 512 kts | 253° |
| 2026-05-07 15:12 | 14.60133 | 102.03867 | 31071 ft | 510 kts | 253° |
| 2026-05-07 15:12 | 14.59065 | 102.00428 | 30427 ft | 507 kts | 252° |
| 2026-05-07 15:13 | 14.57987 | 101.96959 | 29745 ft | 505 kts | 252° |
| 2026-05-07 15:13 | 14.56916 | 101.93520 | 29028 ft | 501 kts | 252° |
| 2026-05-07 15:13 | 14.55828 | 101.90118 | 28352 ft | 497 kts | 250° |
| 2026-05-07 15:13 | 14.54521 | 101.86831 | 27713 ft | 493 kts | 246° |
| 2026-05-07 15:14 | 14.53163 | 101.83595 | 27056 ft | 489 kts | 246° |
| 2026-05-07 15:14 | 14.51830 | 101.80375 | 26423 ft | 486 kts | 247° |
| 2026-05-07 15:14 | 14.50522 | 101.77171 | 25779 ft | 483 kts | 247° |
| 2026-05-07 15:14 | 14.49250 | 101.74033 | 25141 ft | 480 kts | 247° |
| 2026-05-07 15:15 | 14.47952 | 101.70814 | 24485 ft | 477 kts | 247° |
| 2026-05-07 15:15 | 14.46707 | 101.67719 | 23850 ft | 475 kts | 247° |
| 2026-05-07 15:15 | 14.45444 | 101.64576 | 23137 ft | 472 kts | 247° |
| 2026-05-07 15:15 | 14.44194 | 101.61467 | 22435 ft | 468 kts | 247° |
| 2026-05-07 15:16 | 14.42955 | 101.58383 | 21767 ft | 463 kts | 247° |
| 2026-05-07 15:16 | 14.41702 | 101.55264 | 21094 ft | 458 kts | 247° |
| 2026-05-07 15:16 | 14.40505 | 101.52287 | 20424 ft | 454 kts | 247° |
| 2026-05-07 15:16 | 14.39300 | 101.49290 | 19770 ft | 450 kts | 247° |
| 2026-05-07 15:17 | 14.38104 | 101.46317 | 19104 ft | 447 kts | 247° |
| 2026-05-07 15:17 | 14.36916 | 101.43366 | 18427 ft | 444 kts | 246° |
| 2026-05-07 15:17 | 14.35739 | 101.40442 | 17708 ft | 441 kts | 246° |
| 2026-05-07 15:17 | 14.34581 | 101.37568 | 17473 ft | 425 kts | 246° |
| 2026-05-07 15:18 | 14.33473 | 101.34817 | 17364 ft | 407 kts | 246° |
| 2026-05-07 15:18 | 14.32411 | 101.32177 | 17211 ft | 391 kts | 246° |
| 2026-05-07 15:18 | 14.31313 | 101.29646 | 16786 ft | 384 kts | 240° |
| 2026-05-07 15:18 | 14.29687 | 101.27503 | 16278 ft | 378 kts | 221° |
| 2026-05-07 15:19 | 14.27703 | 101.25752 | 15767 ft | 374 kts | 218° |
| 2026-05-07 15:19 | 14.25686 | 101.24062 | 15263 ft | 371 kts | 218° |
| 2026-05-07 15:19 | 14.23694 | 101.22387 | 14768 ft | 368 kts | 218° |
| 2026-05-07 15:19 | 14.21719 | 101.20718 | 14261 ft | 365 kts | 218° |
| 2026-05-07 15:20 | 14.19765 | 101.19060 | 13790 ft | 363 kts | 218° |
| 2026-05-07 15:20 | 14.17826 | 101.17414 | 13245 ft | 360 kts | 218° |
| 2026-05-07 15:20 | 14.15898 | 101.15776 | 12726 ft | 356 kts | 218° |
| 2026-05-07 15:20 | 14.14000 | 101.14163 | 12323 ft | 350 kts | 218° |
| 2026-05-07 15:21 | 14.12158 | 101.12596 | 12119 ft | 337 kts | 218° |
| 2026-05-07 15:21 | 14.10390 | 101.11091 | 12016 ft | 322 kts | 218° |
| 2026-05-07 15:21 | 14.08685 | 101.09642 | 11742 ft | 315 kts | 218° |
| 2026-05-07 15:21 | 14.07000 | 101.08216 | 11319 ft | 313 kts | 218° |
| 2026-05-07 15:22 | 14.05162 | 101.07064 | 10918 ft | 308 kts | 200° |
| 2026-05-07 15:22 | 14.03134 | 101.06415 | 10609 ft | 302 kts | 193° |
| 2026-05-07 15:22 | 14.01104 | 101.05873 | 10288 ft | 300 kts | 193° |
| 2026-05-07 15:22 | 13.99086 | 101.05335 | 9984 ft | 299 kts | 193° |
| 2026-05-07 15:23 | 13.97069 | 101.04791 | 9659 ft | 299 kts | 193° |
| 2026-05-07 15:23 | 13.95065 | 101.04252 | 9336 ft | 297 kts | 193° |
| 2026-05-07 15:23 | 13.93100 | 101.03716 | 9032 ft | 295 kts | 194° |
| 2026-05-07 15:23 | 13.91175 | 101.03187 | 8737 ft | 293 kts | 194° |
| 2026-05-07 15:24 | 13.89209 | 101.02646 | 8429 ft | 291 kts | 194° |
| 2026-05-07 15:24 | 13.87256 | 101.02114 | 8131 ft | 290 kts | 193° |
| 2026-05-07 15:24 | 13.85321 | 101.01586 | 7907 ft | 283 kts | 194° |
| 2026-05-07 15:24 | 13.83492 | 101.00951 | 7742 ft | 273 kts | 205° |
| 2026-05-07 15:25 | 13.82053 | 100.99750 | 7579 ft | 265 kts | 232° |
| 2026-05-07 15:25 | 13.81308 | 100.98045 | 7298 ft | 263 kts | 259° |
| 2026-05-07 15:25 | 13.81368 | 100.96184 | 7002 ft | 261 kts | 282° |
| 2026-05-07 15:25 | 13.81823 | 100.94386 | 6695 ft | 259 kts | 285° |
| 2026-05-07 15:26 | 13.82323 | 100.92607 | 6412 ft | 257 kts | 285° |
| 2026-05-07 15:26 | 13.82974 | 100.90911 | 6147 ft | 253 kts | 301° |
| 2026-05-07 15:26 | 13.84238 | 100.89695 | 5873 ft | 251 kts | 333° |
| 2026-05-07 15:26 | 13.85933 | 100.89348 | 5447 ft | 252 kts | 6° |
| 2026-05-07 15:27 | 13.87622 | 100.89705 | 5104 ft | 251 kts | 15° |
| 2026-05-07 15:27 | 13.89343 | 100.89845 | 4893 ft | 247 kts | 350° |
| 2026-05-07 15:27 | 13.90814 | 100.89069 | 4756 ft | 236 kts | 314° |
| 2026-05-07 15:27 | 13.91566 | 100.87637 | 4650 ft | 223 kts | 281° |
| 2026-05-07 15:28 | 13.91492 | 100.86114 | 4510 ft | 208 kts | 252° |
| 2026-05-07 15:28 | 13.90774 | 100.84883 | 4156 ft | 199 kts | 225° |
| 2026-05-07 15:28 | 13.89617 | 100.84169 | 3792 ft | 192 kts | 196° |
| 2026-05-07 15:28 | 13.88293 | 100.83820 | 3634 ft | 206 kts | 196° |
| 2026-05-07 15:29 | 13.86876 | 100.83408 | 3427 ft | 207 kts | 195° |
| 2026-05-07 15:29 | 13.85615 | 100.82845 | 3472 ft | 195 kts | 209° |
| 2026-05-07 15:29 | 13.84592 | 100.81926 | 3293 ft | 195 kts | 230° |
| 2026-05-07 15:29 | 13.83756 | 100.80833 | 2998 ft | 195 kts | 229° |
| 2026-05-07 15:30 | 13.82823 | 100.79857 | 2672 ft | 188 kts | 216° |
| 2026-05-07 15:30 | 13.81657 | 100.79288 | 2474 ft | 184 kts | 194° |
| 2026-05-07 15:30 | 13.80497 | 100.79008 | 2322 ft | 163 kts | 190° |
| 2026-05-07 15:30 | 13.79436 | 100.78861 | 2226 ft | 145 kts | 187° |
| 2026-05-07 15:31 | 13.78476 | 100.78617 | 1930 ft | 142 kts | 197° |
| 2026-05-07 15:31 | 13.77547 | 100.78330 | 1675 ft | 137 kts | 195° |
| 2026-05-07 15:31 | 13.76642 | 100.78079 | 1424 ft | 131 kts | 194° |
| 2026-05-07 15:31 | 13.75761 | 100.77868 | 1309 ft | 130 kts | 193° |
| 2026-05-07 15:32 | 13.74883 | 100.77642 | 1164 ft | 131 kts | 198° |
| 2026-05-07 15:32 | 13.74037 | 100.77361 | 997 ft | 131 kts | 195° |
| 2026-05-07 15:32 | 13.73153 | 100.77146 | 813 ft | 130 kts | 192° |
| 2026-05-07 15:32 | 13.72261 | 100.76919 | 633 ft | 132 kts | 194° |
| 2026-05-07 15:33 | 13.71378 | 100.76691 | 460 ft | 130 kts | 195° |
| 2026-05-07 15:33 | 13.70512 | 100.76459 | 314 ft | 129 kts | 194° |
| 2026-05-07 15:33 | 13.69637 | 100.76233 | 160 ft | 129 kts | 195° |
| 2026-05-07 15:33 | 13.68774 | 100.76008 | 25 ft | 124 kts | 195° |
| 2026-05-07 15:34 | 13.68112 | 100.75827 | 19 ft | 61 kts | 195° |
| 2026-05-07 15:34 | 13.67964 | 100.75786 | 17 ft | 7 kts | 195° |
| 2026-05-07 15:34 | 13.67719 | 100.75722 | 17 ft | 50 kts | 196° |
| 2026-05-07 15:34 | 13.67526 | 100.75615 | 18 ft | 12 kts | 223° |
| 2026-05-07 15:35 | 13.67491 | 100.75582 | 19 ft | 7 kts | 223° |
| 2026-05-07 15:35 | 13.67456 | 100.75536 | 19 ft | 9 kts | 243° |
| 2026-05-07 15:35 | 13.67456 | 100.75499 | 19 ft | 4 kts | 301° |
| 2026-05-07 15:35 | 13.67476 | 100.75488 | 19 ft | 6 kts | 336° |
| 2026-05-07 15:36 | 13.67530 | 100.75480 | 19 ft | 6 kts | 8° |
| 2026-05-07 15:36 | 13.67537 | 100.75481 | 19 ft | 3 kts | 9° |
| 2026-05-07 15:36 | 13.67581 | 100.75490 | 19 ft | 10 kts | 14° |
| 2026-05-07 15:36 | 13.67626 | 100.75503 | 19 ft | 1 kts | 15° |
| 2026-05-07 15:37 | 13.67655 | 100.75511 | 19 ft | 8 kts | 15° |
| 2026-05-07 15:37 | 13.67728 | 100.75527 | 19 ft | 2 kts | 358° |
| 2026-05-07 15:37 | 13.67765 | 100.75511 | 19 ft | 8 kts | 323° |
| 2026-05-07 15:37 | 13.67799 | 100.75472 | 19 ft | 1 kts | 315° |
| 2026-05-07 15:38 | 13.67862 | 100.75445 | 19 ft | 11 kts | 327° |
| 2026-05-07 15:38 | 13.67890 | 100.75396 | 19 ft | 18 kts | 293° |
| 2026-05-07 15:38 | 13.67924 | 100.75271 | 19 ft | 18 kts | 282° |
| 2026-05-07 15:38 | 13.67963 | 100.75162 | 19 ft | 11 kts | 320° |
| 2026-05-07 15:39 | 13.68018 | 100.75157 | 19 ft | 7 kts | 18° |
| 2026-05-07 15:39 | 13.68042 | 100.75165 | 19 ft | 0 kts | 13° |